sensor_id;sensor_type;location;lat;lon;timestamp;pressure;altitude;pressure_sealevel;temperature;humidity
14594;BME280;7383;52.354;9.756;2023-01-25T00:04:25;65156.72;;;-143.30;100.00
14594;BME280;7383;52.354;9.756;2023-01-25T00:09:58;65156.72;;;-143.30;100.00
14594;BME280;7383;52.354;9.756;2023-01-25T00:12:38;65156.72;;;-143.30;100.00
14594;BME280;7383;52.354;9.756;2023-01-25T00:15:27;65156.72;;;-143.30;100.00
14594;BME280;7383;52.354;9.756;2023-01-25T00:17:54;65156.72;;;-143.30;100.00
14594;BME280;7383;52.354;9.756;2023-01-25T00:22:24;65156.72;;;-143.30;100.00
14594;BME280;7383;52.354;9.756;2023-01-25T00:23:10;65156.72;;;-143.30;100.00
14594;BME280;7383;52.354;9.756;2023-01-25T00:25:37;65156.72;;;-143.30;100.00
14594;BME280;7383;52.354;9.756;2023-01-25T00:28:08;65156.72;;;-143.30;100.00
14594;BME280;7383;52.354;9.756;2023-01-25T00:30:36;65156.72;;;-143.30;100.00
14594;BME280;7383;52.354;9.756;2023-01-25T00:33:06;65156.72;;;-143.30;100.00
14594;BME280;7383;52.354;9.756;2023-01-25T00:35:55;65156.72;;;-143.30;100.00
14594;BME280;7383;52.354;9.756;2023-01-25T00:38:36;65156.72;;;-143.30;100.00
14594;BME280;7383;52.354;9.756;2023-01-25T00:41:15;65156.72;;;-143.30;100.00
14594;BME280;7383;52.354;9.756;2023-01-25T00:43:58;65156.72;;;-143.30;100.00
14594;BME280;7383;52.354;9.756;2023-01-25T00:46:27;65156.72;;;-143.30;100.00
14594;BME280;7383;52.354;9.756;2023-01-25T00:49:25;65156.72;;;-143.30;100.00
14594;BME280;7383;52.354;9.756;2023-01-25T01:18:08;-12550.41;;;5.44;100.00
14594;BME280;7383;52.354;9.756;2023-01-25T01:20:48;-12549.53;;;5.39;100.00
14594;BME280;7383;52.354;9.756;2023-01-25T01:23:26;-12548.28;;;5.32;100.00
14594;BME280;7383;52.354;9.756;2023-01-25T01:25:53;-12548.28;;;5.32;100.00
14594;BME280;7383;52.354;9.756;2023-01-25T01:28:26;-12548.56;;;5.34;100.00
14594;BME280;7383;52.354;9.756;2023-01-25T01:30:59;-12547.84;;;5.30;100.00
14594;BME280;7383;52.354;9.756;2023-01-25T01:33:47;-12547.31;;;5.27;100.00
14594;BME280;7383;52.354;9.756;2023-01-25T01:36:36;-12546.44;;;5.22;100.00
14594;BME280;7383;52.354;9.756;2023-01-25T01:39:52;-12545.38;;;5.16;100.00
14594;BME280;7383;52.354;9.756;2023-01-25T01:44:19;-12545.13;;;5.14;100.00
14594;BME280;7383;52.354;9.756;2023-01-25T02:02:39;-12541.06;;;4.91;100.00
14594;BME280;7383;52.354;9.756;2023-01-25T02:05:15;-12539.94;;;4.84;100.00
14594;BME280;7383;52.354;9.756;2023-01-25T02:08:05;-12538.88;;;4.78;100.00
14594;BME280;7383;52.354;9.756;2023-01-25T02:10:40;-12537.72;;;4.72;100.00
14594;BME280;7383;52.354;9.756;2023-01-25T02:13:19;-12535.34;;;4.58;100.00
14594;BME280;7383;52.354;9.756;2023-01-25T02:15:51;-12535.44;;;4.59;100.00
14594;BME280;7383;52.354;9.756;2023-01-25T02:18:26;-12536.41;;;4.64;100.00
14594;BME280;7383;52.354;9.756;2023-01-25T02:21:50;-12537.53;;;4.71;100.00
14594;BME280;7383;52.354;9.756;2023-01-25T02:24:34;-12539.31;;;4.81;100.00
14594;BME280;7383;52.354;9.756;2023-01-25T02:27:23;-12540.00;;;4.85;100.00
14594;BME280;7383;52.354;9.756;2023-01-25T02:29:58;-12538.59;;;4.77;100.00
14594;BME280;7383;52.354;9.756;2023-01-25T02:32:28;-12537.97;;;4.73;100.00
14594;BME280;7383;52.354;9.756;2023-01-25T02:34:56;-12537.53;;;4.71;100.00
14594;BME280;7383;52.354;9.756;2023-01-25T02:37:23;-12538.94;;;4.79;100.00
14594;BME280;7383;52.354;9.756;2023-01-25T02:39:51;-12538.34;;;4.75;100.00
14594;BME280;7383;52.354;9.756;2023-01-25T02:42:24;-12538.34;;;4.75;100.00
14594;BME280;7383;52.354;9.756;2023-01-25T02:44:55;-12538.88;;;4.78;100.00
14594;BME280;7383;52.354;9.756;2023-01-25T02:47:22;-12538.78;;;4.78;100.00
14594;BME280;7383;52.354;9.756;2023-01-25T02:49:51;-12537.00;;;4.68;100.00
14594;BME280;7383;52.354;9.756;2023-01-25T02:52:26;-12536.56;;;4.65;100.00
14594;BME280;7383;52.354;9.756;2023-01-25T02:55:01;-12536.56;;;4.65;100.00
14594;BME280;7383;52.354;9.756;2023-01-25T02:57:33;-12537.28;;;4.69;100.00
14594;BME280;7383;52.354;9.756;2023-01-25T03:00:04;-12537.97;;;4.73;100.00
14594;BME280;7383;52.354;9.756;2023-01-25T03:11:12;-12533.41;;;4.47;100.00
14594;BME280;7383;52.354;9.756;2023-01-25T03:13:47;-12531.72;;;4.37;100.00
14594;BME280;7383;52.354;9.756;2023-01-25T03:16:29;-12530.22;;;4.29;100.00
14594;BME280;7383;52.354;9.756;2023-01-25T03:19:06;-12528.81;;;4.21;100.00
14594;BME280;7383;52.354;9.756;2023-01-25T03:21:46;-12527.50;;;4.13;100.00
14594;BME280;7383;52.354;9.756;2023-01-25T03:24:14;-12526.53;;;4.08;100.00
14594;BME280;7383;52.354;9.756;2023-01-25T03:27:05;-12526.09;;;4.05;100.00
14594;BME280;7383;52.354;9.756;2023-01-25T03:29:41;-12525.03;;;3.99;100.00
14594;BME280;7383;52.354;9.756;2023-01-25T03:32:11;-12526.09;;;4.05;100.00
14594;BME280;7383;52.354;9.756;2023-01-25T03:34:41;-12527.59;;;4.14;100.00
14594;BME280;7383;52.354;9.756;2023-01-25T03:37:09;-12527.31;;;4.12;100.00
14594;BME280;7383;52.354;9.756;2023-01-25T03:39:41;-12530.41;;;4.30;100.00
14594;BME280;7383;52.354;9.756;2023-01-25T03:42:11;-12531.47;;;4.36;100.00
14594;BME280;7383;52.354;9.756;2023-01-25T03:44:41;-12532.78;;;4.43;100.00
14594;BME280;7383;52.354;9.756;2023-01-25T03:47:09;-12533.50;;;4.47;100.00
14594;BME280;7383;52.354;9.756;2023-01-25T03:49:38;-12533.75;;;4.49;100.00
14594;BME280;7383;52.354;9.756;2023-01-25T03:52:07;-12533.94;;;4.50;100.00
14594;BME280;7383;52.354;9.756;2023-01-25T03:54:39;-12534.72;;;4.55;100.00
14594;BME280;7383;52.354;9.756;2023-01-25T03:57:22;-12536.41;;;4.64;100.00
14594;BME280;7383;52.354;9.756;2023-01-25T04:00:18;-12537.09;;;4.68;100.00
14594;BME280;7383;52.354;9.756;2023-01-25T04:02:47;-12535.97;;;4.62;100.00
14594;BME280;7383;52.354;9.756;2023-01-25T04:05:13;-12536.66;;;4.66;100.00
14594;BME280;7383;52.354;9.756;2023-01-25T04:07:40;-12536.31;;;4.64;100.00
14594;BME280;7383;52.354;9.756;2023-01-25T04:10:32;-12537.38;;;4.70;100.00
14594;BME280;7383;52.354;9.756;2023-01-25T04:13:11;-12537.91;;;4.73;100.00
14594;BME280;7383;52.354;9.756;2023-01-25T04:16:08;-12536.94;;;4.67;100.00
14594;BME280;7383;52.354;9.756;2023-01-25T04:18:39;-12534.19;;;4.52;100.00
14594;BME280;7383;52.354;9.756;2023-01-25T04:21:29;-12533.22;;;4.46;100.00
14594;BME280;7383;52.354;9.756;2023-01-25T04:24:23;-12532.78;;;4.43;100.00
14594;BME280;7383;52.354;9.756;2023-01-25T04:27:02;-12533.50;;;4.47;100.00
14594;BME280;7383;52.354;9.756;2023-01-25T04:29:38;-12533.13;;;4.45;100.00
14594;BME280;7383;52.354;9.756;2023-01-25T04:32:21;-12533.13;;;4.45;100.00
14594;BME280;7383;52.354;9.756;2023-01-25T04:34:53;-12533.50;;;4.47;100.00
14594;BME280;7383;52.354;9.756;2023-01-25T04:37:32;-12533.13;;;4.45;100.00
14594;BME280;7383;52.354;9.756;2023-01-25T04:40:06;-12533.94;;;4.50;100.00
14594;BME280;7383;52.354;9.756;2023-01-25T04:42:40;-12534.47;;;4.53;100.00
14594;BME280;7383;52.354;9.756;2023-01-25T04:48:38;-12536.56;;;4.65;100.00
14594;BME280;7383;52.354;9.756;2023-01-25T04:51:17;-12537.44;;;4.70;100.00
14594;BME280;7383;52.354;9.756;2023-01-25T04:53:44;-12538.25;;;4.75;100.00
14594;BME280;7383;52.354;9.756;2023-01-25T04:56:11;-12537.44;;;4.70;100.00
14594;BME280;7383;52.354;9.756;2023-01-25T04:58:37;-12536.75;;;4.66;100.00
14594;BME280;7383;52.354;9.756;2023-01-25T05:01:06;-12537.63;;;4.71;100.00
14594;BME280;7383;52.354;9.756;2023-01-25T05:03:36;-12536.84;;;4.67;100.00
14594;BME280;7383;52.354;9.756;2023-01-25T05:06:10;-12536.41;;;4.64;100.00
14594;BME280;7383;52.354;9.756;2023-01-25T05:08:38;-12537.53;;;4.71;100.00
14594;BME280;7383;52.354;9.756;2023-01-25T05:11:12;-12538.06;;;4.74;100.00
14594;BME280;7383;52.354;9.756;2023-01-25T05:13:42;-12537.72;;;4.72;100.00
14594;BME280;7383;52.354;9.756;2023-01-25T05:16:40;-12537.19;;;4.69;100.00
14594;BME280;7383;52.354;9.756;2023-01-25T05:19:13;-12537.81;;;4.72;100.00
14594;BME280;7383;52.354;9.756;2023-01-25T05:21:45;-12538.59;;;4.77;100.00
14594;BME280;7383;52.354;9.756;2023-01-25T05:24:33;-12537.72;;;4.72;100.00
14594;BME280;7383;52.354;9.756;2023-01-25T05:27:01;-12536.41;;;4.64;100.00
14594;BME280;7383;52.354;9.756;2023-01-25T05:32:01;-12535.97;;;4.62;100.00
14594;BME280;7383;52.354;9.756;2023-01-25T05:34:29;-12534.81;;;4.55;100.00
14594;BME280;7383;52.354;9.756;2023-01-25T05:36:56;-12534.47;;;4.53;100.00
14594;BME280;7383;52.354;9.756;2023-01-25T05:39:23;-12535.34;;;4.58;100.00
14594;BME280;7383;52.354;9.756;2023-01-25T05:41:50;-12535.88;;;4.61;100.00
14594;BME280;7383;52.354;9.756;2023-01-25T05:44:16;-12536.56;;;4.65;100.00
14594;BME280;7383;52.354;9.756;2023-01-25T05:46:43;-12536.84;;;4.67;100.00
14594;BME280;7383;52.354;9.756;2023-01-25T05:49:09;-12536.13;;;4.63;100.00
14594;BME280;7383;52.354;9.756;2023-01-25T05:51:37;-12534.53;;;4.54;100.00
14594;BME280;7383;52.354;9.756;2023-01-25T05:54:04;-12533.31;;;4.46;100.00
14594;BME280;7383;52.354;9.756;2023-01-25T05:56:33;-12531.19;;;4.34;100.00
14594;BME280;7383;52.354;9.756;2023-01-25T05:59:00;-12530.66;;;4.31;100.00
14594;BME280;7383;52.354;9.756;2023-01-25T06:01:28;-12529.59;;;4.25;100.00
14594;BME280;7383;52.354;9.756;2023-01-25T06:04:04;-12529.69;;;4.26;100.00
14594;BME280;7383;52.354;9.756;2023-01-25T06:06:31;-12530.56;;;4.31;100.00
14594;BME280;7383;52.354;9.756;2023-01-25T06:08:59;-12531.56;;;4.36;100.00
14594;BME280;7383;52.354;9.756;2023-01-25T06:11:26;-12531.47;;;4.36;100.00
14594;BME280;7383;52.354;9.756;2023-01-25T06:13:53;-12532.16;;;4.40;100.00
14594;BME280;7383;52.354;9.756;2023-01-25T06:16:19;-12531.91;;;4.38;100.00
14594;BME280;7383;52.354;9.756;2023-01-25T06:18:46;-12533.03;;;4.45;100.00
14594;BME280;7383;52.354;9.756;2023-01-25T06:21:12;-12531.72;;;4.37;100.00
14594;BME280;7383;52.354;9.756;2023-01-25T06:23:39;-12529.78;;;4.26;100.00
14594;BME280;7383;52.354;9.756;2023-01-25T06:26:09;-12529.00;;;4.22;100.00
14594;BME280;7383;52.354;9.756;2023-01-25T06:28:39;-12527.94;;;4.16;100.00
14594;BME280;7383;52.354;9.756;2023-01-25T06:31:11;-12528.72;;;4.20;100.00
14594;BME280;7383;52.354;9.756;2023-01-25T06:33:38;-12529.34;;;4.24;100.00
14594;BME280;7383;52.354;9.756;2023-01-25T06:36:09;-12526.97;;;4.10;100.00
14594;BME280;7383;52.354;9.756;2023-01-25T06:38:38;65156.72;;;-143.30;100.00
14594;BME280;7383;52.354;9.756;2023-01-25T06:41:10;65156.72;;;-143.30;100.00
14594;BME280;7383;52.354;9.756;2023-01-25T06:43:37;65156.72;;;-143.30;100.00
14594;BME280;7383;52.354;9.756;2023-01-25T06:46:05;65156.72;;;-143.30;100.00
14594;BME280;7383;52.354;9.756;2023-01-25T06:48:35;65156.72;;;-143.30;100.00
14594;BME280;7383;52.354;9.756;2023-01-25T06:51:06;65156.72;;;-143.30;100.00
14594;BME280;7383;52.354;9.756;2023-01-25T06:53:34;65156.72;;;-143.30;100.00
14594;BME280;7383;52.354;9.756;2023-01-25T06:56:28;65156.72;;;-143.30;100.00
14594;BME280;7383;52.354;9.756;2023-01-25T06:59:13;65156.72;;;-143.30;100.00
14594;BME280;7383;52.354;9.756;2023-01-25T07:01:52;65156.72;;;-143.30;100.00
14594;BME280;7383;52.354;9.756;2023-01-25T07:04:24;65156.72;;;-143.30;100.00
14594;BME280;7383;52.354;9.756;2023-01-25T07:06:57;65156.72;;;-143.30;100.00
14594;BME280;7383;52.354;9.756;2023-01-25T07:09:25;65156.72;;;-143.30;100.00
14594;BME280;7383;52.354;9.756;2023-01-25T07:11:53;65156.72;;;-143.30;100.00
14594;BME280;7383;52.354;9.756;2023-01-25T07:14:20;65156.72;;;-143.30;100.00
14594;BME280;7383;52.354;9.756;2023-01-25T07:17:02;-12528.09;;;4.17;100.00
14594;BME280;7383;52.354;9.756;2023-01-25T07:19:36;-12529.44;;;4.24;100.00
14594;BME280;7383;52.354;9.756;2023-01-25T07:22:09;-12529.69;;;4.26;100.00
14594;BME280;7383;52.354;9.756;2023-01-25T07:24:38;-12529.16;;;4.23;100.00
14594;BME280;7383;52.354;9.756;2023-01-25T07:27:07;-12528.47;;;4.19;100.00
14594;BME280;7383;52.354;9.756;2023-01-25T07:29:33;-12529.09;;;4.22;100.00
14594;BME280;7383;52.354;9.756;2023-01-25T07:31:59;-12529.59;;;4.25;100.00
14594;BME280;7383;52.354;9.756;2023-01-25T07:34:26;-12529.69;;;4.26;100.00
14594;BME280;7383;52.354;9.756;2023-01-25T07:36:53;-12529.78;;;4.26;100.00
14594;BME280;7383;52.354;9.756;2023-01-25T07:39:19;-12530.50;;;4.30;100.00
14594;BME280;7383;52.354;9.756;2023-01-25T07:41:45;-12529.69;;;4.26;100.00
14594;BME280;7383;52.354;9.756;2023-01-25T07:44:13;-12527.50;;;4.13;100.00
14594;BME280;7383;52.354;9.756;2023-01-25T07:46:40;-12526.97;;;4.10;100.00
14594;BME280;7383;52.354;9.756;2023-01-25T07:49:06;-12526.97;;;4.10;100.00
14594;BME280;7383;52.354;9.756;2023-01-25T07:51:33;-12528.81;;;4.21;100.00
14594;BME280;7383;52.354;9.756;2023-01-25T07:54:00;-12529.16;;;4.23;100.00
14594;BME280;7383;52.354;9.756;2023-01-25T07:56:30;65156.72;;;-143.30;100.00
14594;BME280;7383;52.354;9.756;2023-01-25T07:58:58;65156.72;;;-143.30;100.00
14594;BME280;7383;52.354;9.756;2023-01-25T08:01:29;65156.72;;;-143.30;100.00
14594;BME280;7383;52.354;9.756;2023-01-25T08:03:56;65156.72;;;-143.30;100.00
14594;BME280;7383;52.354;9.756;2023-01-25T08:06:24;65156.72;;;-143.30;100.00
14594;BME280;7383;52.354;9.756;2023-01-25T08:08:52;65156.72;;;-143.30;100.00
14594;BME280;7383;52.354;9.756;2023-01-25T08:11:20;65156.72;;;-143.30;100.00
14594;BME280;7383;52.354;9.756;2023-01-25T08:13:47;65156.72;;;-143.30;100.00
14594;BME280;7383;52.354;9.756;2023-01-25T08:16:18;65156.72;;;-143.30;100.00
14594;BME280;7383;52.354;9.756;2023-01-25T08:18:56;65156.72;;;-143.30;100.00
14594;BME280;7383;52.354;9.756;2023-01-25T08:21:24;65156.72;;;-143.30;100.00
14594;BME280;7383;52.354;9.756;2023-01-25T08:23:54;65156.72;;;-143.30;100.00
14594;BME280;7383;52.354;9.756;2023-01-25T08:26:20;65156.72;;;-143.30;100.00
14594;BME280;7383;52.354;9.756;2023-01-25T08:28:48;65156.72;;;-143.30;100.00
14594;BME280;7383;52.354;9.756;2023-01-25T08:31:16;65156.72;;;-143.30;100.00
14594;BME280;7383;52.354;9.756;2023-01-25T08:33:44;65156.72;;;-143.30;100.00
14594;BME280;7383;52.354;9.756;2023-01-25T08:36:13;65156.72;;;-143.30;100.00
14594;BME280;7383;52.354;9.756;2023-01-25T08:38:42;65156.72;;;-143.30;100.00
14594;BME280;7383;52.354;9.756;2023-01-25T08:41:13;65156.72;;;-143.30;100.00
14594;BME280;7383;52.354;9.756;2023-01-25T08:44:07;65156.72;;;-143.30;100.00
14594;BME280;7383;52.354;9.756;2023-01-25T08:46:48;65156.72;;;-143.30;100.00
14594;BME280;7383;52.354;9.756;2023-01-25T08:49:20;65156.72;;;-143.30;100.00
14594;BME280;7383;52.354;9.756;2023-01-25T08:51:48;65156.72;;;-143.30;100.00
14594;BME280;7383;52.354;9.756;2023-01-25T08:54:17;65156.72;;;-143.30;100.00
14594;BME280;7383;52.354;9.756;2023-01-25T08:56:45;65156.72;;;-143.30;100.00
14594;BME280;7383;52.354;9.756;2023-01-25T08:59:24;65156.72;;;-143.30;100.00
14594;BME280;7383;52.354;9.756;2023-01-25T09:01:50;65156.72;;;-143.30;100.00
14594;BME280;7383;52.354;9.756;2023-01-25T09:04:17;65156.72;;;-143.30;100.00
14594;BME280;7383;52.354;9.756;2023-01-25T09:06:43;65156.72;;;-143.30;100.00
14594;BME280;7383;52.354;9.756;2023-01-25T09:09:12;65156.72;;;-143.30;100.00
14594;BME280;7383;52.354;9.756;2023-01-25T09:11:38;65156.72;;;-143.30;100.00
14594;BME280;7383;52.354;9.756;2023-01-25T09:14:05;65156.72;;;-143.30;100.00
14594;BME280;7383;52.354;9.756;2023-01-25T09:16:33;65156.72;;;-143.30;100.00
14594;BME280;7383;52.354;9.756;2023-01-25T09:19:04;65156.72;;;-143.30;100.00
14594;BME280;7383;52.354;9.756;2023-01-25T09:21:31;65156.72;;;-143.30;100.00
14594;BME280;7383;52.354;9.756;2023-01-25T09:23:58;65156.72;;;-143.30;100.00
14594;BME280;7383;52.354;9.756;2023-01-25T09:26:26;-12532.00;;;4.39;100.00
14594;BME280;7383;52.354;9.756;2023-01-25T09:28:53;-12532.00;;;4.39;100.00
14594;BME280;7383;52.354;9.756;2023-01-25T09:31:21;-12533.41;;;4.47;100.00
14594;BME280;7383;52.354;9.756;2023-01-25T09:33:49;65156.72;;;-143.30;100.00
14594;BME280;7383;52.354;9.756;2023-01-25T09:36:15;65156.72;;;-143.30;100.00
14594;BME280;7383;52.354;9.756;2023-01-25T09:38:42;65156.72;;;-143.30;100.00
14594;BME280;7383;52.354;9.756;2023-01-25T09:41:17;65156.72;;;-143.30;100.00
14594;BME280;7383;52.354;9.756;2023-01-25T09:44:00;65156.72;;;-143.30;100.00
14594;BME280;7383;52.354;9.756;2023-01-25T09:46:36;65156.72;;;-143.30;100.00
14594;BME280;7383;52.354;9.756;2023-01-25T09:49:15;65156.72;;;-143.30;100.00
14594;BME280;7383;52.354;9.756;2023-01-25T09:51:56;65156.72;;;-143.30;100.00
14594;BME280;7383;52.354;9.756;2023-01-25T09:54:26;65156.72;;;-143.30;100.00
14594;BME280;7383;52.354;9.756;2023-01-25T09:56:53;65156.72;;;-143.30;100.00
14594;BME280;7383;52.354;9.756;2023-01-25T09:59:25;65156.72;;;-143.30;100.00
14594;BME280;7383;52.354;9.756;2023-01-25T10:01:56;65156.72;;;-143.30;100.00
14594;BME280;7383;52.354;9.756;2023-01-25T10:04:43;65156.72;;;-143.30;100.00
14594;BME280;7383;52.354;9.756;2023-01-25T10:07:18;65156.72;;;-143.30;100.00
14594;BME280;7383;52.354;9.756;2023-01-25T10:12:40;65156.72;;;-143.30;100.00
14594;BME280;7383;52.354;9.756;2023-01-25T10:15:26;65156.72;;;-143.30;100.00
14594;BME280;7383;52.354;9.756;2023-01-25T10:18:18;65156.72;;;-143.30;100.00
14594;BME280;7383;52.354;9.756;2023-01-25T10:20:53;65156.72;;;-143.30;100.00
14594;BME280;7383;52.354;9.756;2023-01-25T10:23:35;65156.72;;;-143.30;100.00
14594;BME280;7383;52.354;9.756;2023-01-25T10:26:13;65156.72;;;-143.30;100.00
14594;BME280;7383;52.354;9.756;2023-01-25T10:28:45;65156.72;;;-143.30;100.00
14594;BME280;7383;52.354;9.756;2023-01-25T10:31:19;65156.72;;;-143.30;100.00
14594;BME280;7383;52.354;9.756;2023-01-25T10:33:47;65156.72;;;-143.30;100.00
14594;BME280;7383;52.354;9.756;2023-01-25T10:36:15;65156.72;;;-143.30;100.00
14594;BME280;7383;52.354;9.756;2023-01-25T10:38:43;65156.72;;;-143.30;100.00
14594;BME280;7383;52.354;9.756;2023-01-25T10:41:14;65156.72;;;-143.30;100.00
14594;BME280;7383;52.354;9.756;2023-01-25T10:43:41;65156.72;;;-143.30;100.00
14594;BME280;7383;52.354;9.756;2023-01-25T10:46:18;65156.72;;;-143.30;100.00
14594;BME280;7383;52.354;9.756;2023-01-25T10:48:45;65156.72;;;-143.30;100.00
14594;BME280;7383;52.354;9.756;2023-01-25T10:51:28;65156.72;;;-143.30;100.00
14594;BME280;7383;52.354;9.756;2023-01-25T10:53:58;65156.72;;;-143.30;100.00
14594;BME280;7383;52.354;9.756;2023-01-25T10:56:27;65156.72;;;-143.30;100.00
14594;BME280;7383;52.354;9.756;2023-01-25T10:59:17;65156.72;;;-143.30;100.00
14594;BME280;7383;52.354;9.756;2023-01-25T11:01:47;65156.72;;;-143.30;100.00
14594;BME280;7383;52.354;9.756;2023-01-25T11:04:28;65156.72;;;-143.30;100.00
14594;BME280;7383;52.354;9.756;2023-01-25T11:06:56;65156.72;;;-143.30;100.00
14594;BME280;7383;52.354;9.756;2023-01-25T11:09:36;65156.72;;;-143.30;100.00
14594;BME280;7383;52.354;9.756;2023-01-25T11:12:14;65156.72;;;-143.30;100.00
14594;BME280;7383;52.354;9.756;2023-01-25T11:14:41;65156.72;;;-143.30;100.00
14594;BME280;7383;52.354;9.756;2023-01-25T11:17:20;65156.72;;;-143.30;100.00
14594;BME280;7383;52.354;9.756;2023-01-25T11:19:47;65156.72;;;-143.30;100.00
14594;BME280;7383;52.354;9.756;2023-01-25T11:22:20;65156.72;;;-143.30;100.00
14594;BME280;7383;52.354;9.756;2023-01-25T11:24:48;65156.72;;;-143.30;100.00
14594;BME280;7383;52.354;9.756;2023-01-25T11:27:19;65156.72;;;-143.30;100.00
14594;BME280;7383;52.354;9.756;2023-01-25T11:32:26;65156.72;;;-143.30;100.00
14594;BME280;7383;52.354;9.756;2023-01-25T11:34:53;65156.72;;;-143.30;100.00
14594;BME280;7383;52.354;9.756;2023-01-25T11:37:30;65156.72;;;-143.30;100.00
14594;BME280;7383;52.354;9.756;2023-01-25T11:40:08;65156.72;;;-143.30;100.00
14594;BME280;7383;52.354;9.756;2023-01-25T11:42:46;65156.72;;;-143.30;100.00
14594;BME280;7383;52.354;9.756;2023-01-25T11:45:47;65156.72;;;-143.30;100.00
14594;BME280;7383;52.354;9.756;2023-01-25T11:48:33;65156.72;;;-143.30;100.00
14594;BME280;7383;52.354;9.756;2023-01-25T11:51:12;65156.72;;;-143.30;100.00
14594;BME280;7383;52.354;9.756;2023-01-25T11:53:55;65156.72;;;-143.30;100.00
14594;BME280;7383;52.354;9.756;2023-01-25T11:56:40;65156.72;;;-143.30;100.00
14594;BME280;7383;52.354;9.756;2023-01-25T11:59:25;65156.72;;;-143.30;100.00
14594;BME280;7383;52.354;9.756;2023-01-25T12:02:13;65156.72;;;-143.30;100.00
14594;BME280;7383;52.354;9.756;2023-01-25T12:05:04;65156.72;;;-143.30;100.00
14594;BME280;7383;52.354;9.756;2023-01-25T12:07:39;65156.72;;;-143.30;100.00
14594;BME280;7383;52.354;9.756;2023-01-25T12:10:20;65156.72;;;-143.30;100.00
14594;BME280;7383;52.354;9.756;2023-01-25T12:12:53;65156.72;;;-143.30;100.00
14594;BME280;7383;52.354;9.756;2023-01-25T12:15:40;65156.72;;;-143.30;100.00
14594;BME280;7383;52.354;9.756;2023-01-25T12:18:24;65156.72;;;-143.30;100.00
14594;BME280;7383;52.354;9.756;2023-01-25T12:21:11;65156.72;;;-143.30;100.00
14594;BME280;7383;52.354;9.756;2023-01-25T12:23:59;65156.72;;;-143.30;100.00
14594;BME280;7383;52.354;9.756;2023-01-25T12:26:32;65156.72;;;-143.30;100.00
14594;BME280;7383;52.354;9.756;2023-01-25T12:29:17;65156.72;;;-143.30;100.00
14594;BME280;7383;52.354;9.756;2023-01-25T12:31:51;65156.72;;;-143.30;100.00
14594;BME280;7383;52.354;9.756;2023-01-25T12:34:21;65156.72;;;-143.30;100.00
14594;BME280;7383;52.354;9.756;2023-01-25T12:36:52;65156.72;;;-143.30;100.00
14594;BME280;7383;52.354;9.756;2023-01-25T12:39:21;65156.72;;;-143.30;100.00
14594;BME280;7383;52.354;9.756;2023-01-25T12:41:52;65156.72;;;-143.30;100.00
14594;BME280;7383;52.354;9.756;2023-01-25T12:44:24;65156.72;;;-143.30;100.00
14594;BME280;7383;52.354;9.756;2023-01-25T12:46:58;65156.72;;;-143.30;100.00
14594;BME280;7383;52.354;9.756;2023-01-25T12:49:30;65156.72;;;-143.30;100.00
14594;BME280;7383;52.354;9.756;2023-01-25T12:52:05;65156.72;;;-143.30;100.00
14594;BME280;7383;52.354;9.756;2023-01-25T12:54:34;65156.72;;;-143.30;100.00
14594;BME280;7383;52.354;9.756;2023-01-25T12:57:10;65156.72;;;-143.30;100.00
14594;BME280;7383;52.354;9.756;2023-01-25T12:59:45;65156.72;;;-143.30;100.00
14594;BME280;7383;52.354;9.756;2023-01-25T13:02:33;65156.72;;;-143.30;100.00
14594;BME280;7383;52.354;9.756;2023-01-25T13:05:13;65156.72;;;-143.30;100.00
14594;BME280;7383;52.354;9.756;2023-01-25T13:07:47;65156.72;;;-143.30;100.00
14594;BME280;7383;52.354;9.756;2023-01-25T13:10:22;65156.72;;;-143.30;100.00
14594;BME280;7383;52.354;9.756;2023-01-25T13:12:52;65156.72;;;-143.30;100.00
14594;BME280;7383;52.354;9.756;2023-01-25T13:15:37;65156.72;;;-143.30;100.00
14594;BME280;7383;52.354;9.756;2023-01-25T13:18:36;65156.72;;;-143.30;100.00
14594;BME280;7383;52.354;9.756;2023-01-25T13:21:08;65156.72;;;-143.30;100.00
14594;BME280;7383;52.354;9.756;2023-01-25T13:23:38;65156.72;;;-143.30;100.00
14594;BME280;7383;52.354;9.756;2023-01-25T13:26:36;65156.72;;;-143.30;100.00
14594;BME280;7383;52.354;9.756;2023-01-25T13:29:02;65156.72;;;-143.30;100.00
14594;BME280;7383;52.354;9.756;2023-01-25T13:31:43;65156.72;;;-143.30;100.00
14594;BME280;7383;52.354;9.756;2023-01-25T13:34:11;65156.72;;;-143.30;100.00
14594;BME280;7383;52.354;9.756;2023-01-25T13:36:44;65156.72;;;-143.30;100.00
14594;BME280;7383;52.354;9.756;2023-01-25T13:39:43;65156.72;;;-143.30;100.00
14594;BME280;7383;52.354;9.756;2023-01-25T13:42:21;65156.72;;;-143.30;100.00
14594;BME280;7383;52.354;9.756;2023-01-25T13:44:49;65156.72;;;-143.30;100.00
14594;BME280;7383;52.354;9.756;2023-01-25T13:47:20;65156.72;;;-143.30;100.00
14594;BME280;7383;52.354;9.756;2023-01-25T13:49:52;65156.72;;;-143.30;100.00
14594;BME280;7383;52.354;9.756;2023-01-25T13:52:22;65156.72;;;-143.30;100.00
14594;BME280;7383;52.354;9.756;2023-01-25T13:54:55;65156.72;;;-143.30;100.00
14594;BME280;7383;52.354;9.756;2023-01-25T14:04:33;65156.72;;;-143.30;100.00
14594;BME280;7383;52.354;9.756;2023-01-25T14:06:54;65156.72;;;-143.30;100.00
14594;BME280;7383;52.354;9.756;2023-01-25T14:09:51;65156.72;;;-143.30;100.00
14594;BME280;7383;52.354;9.756;2023-01-25T14:12:33;65156.72;;;-143.30;100.00
14594;BME280;7383;52.354;9.756;2023-01-25T14:15:20;65156.72;;;-143.30;100.00
14594;BME280;7383;52.354;9.756;2023-01-25T14:18:03;65156.72;;;-143.30;100.00
14594;BME280;7383;52.354;9.756;2023-01-25T14:20:30;65156.72;;;-143.30;100.00
14594;BME280;7383;52.354;9.756;2023-01-25T14:23:48;65156.72;;;-143.30;100.00
14594;BME280;7383;52.354;9.756;2023-01-25T14:26:36;65156.72;;;-143.30;100.00
14594;BME280;7383;52.354;9.756;2023-01-25T14:29:16;65156.72;;;-143.30;100.00
14594;BME280;7383;52.354;9.756;2023-01-25T14:31:46;65156.72;;;-143.30;100.00
14594;BME280;7383;52.354;9.756;2023-01-25T14:34:17;65156.72;;;-143.30;100.00
14594;BME280;7383;52.354;9.756;2023-01-25T14:36:46;65156.72;;;-143.30;100.00
14594;BME280;7383;52.354;9.756;2023-01-25T14:39:27;65156.72;;;-143.30;100.00
14594;BME280;7383;52.354;9.756;2023-01-25T14:41:56;65156.72;;;-143.30;100.00